Terminal Aerodrome Forecast
Issued by NWS

Home | Current Version | Previous Version | Text Only | Print | Product List | Glossary On
Versions: 1 2 3 4 5 6 7 8 9 10 11 12 13 14 15 16
000
FTUS42 KFFC 240520
TAFPDK
TAF
KPDK 240520Z 2406/2506 00000KT P6SM BKN060
     FM240800 00000KT P6SM SCT008 BKN050
      TEMPO 2410/2413 BKN006
     FM241500 14005KT P6SM VCSH SCT030 BKN060
     FM242000 14005KT P6SM SCT050 SCT100
     FM250100 11003KT P6SM SCT060 SCT150=

USA.gov is the U.S. government's official web portal to all federal, state and local government web resources and services.